sensor_id;sensor_type;location;lat;lon;timestamp;P1;durP1;ratioP1;P2;durP2;ratioP2
21657;SDS011;10990;48.174;9.782;2023-01-10T00:02:21;3.20;;;1.10;;
21657;SDS011;10990;48.174;9.782;2023-01-10T00:04:48;3.07;;;0.90;;
21657;SDS011;10990;48.174;9.782;2023-01-10T00:07:14;2.23;;;1.10;;
21657;SDS011;10990;48.174;9.782;2023-01-10T00:09:41;2.13;;;0.90;;
21657;SDS011;10990;48.174;9.782;2023-01-10T00:12:08;1.90;;;1.10;;
21657;SDS011;10990;48.174;9.782;2023-01-10T00:14:53;3.60;;;1.37;;
21657;SDS011;10990;48.174;9.782;2023-01-10T00:17:20;3.40;;;1.20;;
21657;SDS011;10990;48.174;9.782;2023-01-10T00:19:47;2.70;;;1.10;;
21657;SDS011;10990;48.174;9.782;2023-01-10T00:22:13;5.07;;;1.43;;
21657;SDS011;10990;48.174;9.782;2023-01-10T00:24:49;2.93;;;1.17;;
21657;SDS011;10990;48.174;9.782;2023-01-10T00:27:16;2.77;;;1.10;;
21657;SDS011;10990;48.174;9.782;2023-01-10T00:29:46;2.70;;;1.10;;
21657;SDS011;10990;48.174;9.782;2023-01-10T00:32:16;1.20;;;1.07;;
21657;SDS011;10990;48.174;9.782;2023-01-10T00:34:43;1.77;;;1.13;;
21657;SDS011;10990;48.174;9.782;2023-01-10T00:37:10;3.23;;;1.30;;
21657;SDS011;10990;48.174;9.782;2023-01-10T00:39:37;1.77;;;1.10;;
21657;SDS011;10990;48.174;9.782;2023-01-10T00:42:04;2.17;;;1.27;;
21657;SDS011;10990;48.174;9.782;2023-01-10T00:44:48;1.33;;;1.23;;
21657;SDS011;10990;48.174;9.782;2023-01-10T00:47:16;1.53;;;1.30;;
21657;SDS011;10990;48.174;9.782;2023-01-10T00:49:43;1.87;;;1.23;;
21657;SDS011;10990;48.174;9.782;2023-01-10T00:52:10;3.67;;;1.77;;
21657;SDS011;10990;48.174;9.782;2023-01-10T00:54:37;1.97;;;1.60;;
21657;SDS011;10990;48.174;9.782;2023-01-10T00:57:03;1.73;;;1.43;;
21657;SDS011;10990;48.174;9.782;2023-01-10T00:59:30;2.43;;;1.50;;
21657;SDS011;10990;48.174;9.782;2023-01-10T01:01:57;3.77;;;1.53;;
21657;SDS011;10990;48.174;9.782;2023-01-10T01:04:25;3.27;;;1.40;;
21657;SDS011;10990;48.174;9.782;2023-01-10T01:06:52;1.57;;;1.40;;
21657;SDS011;10990;48.174;9.782;2023-01-10T01:09:18;2.53;;;1.50;;
21657;SDS011;10990;48.174;9.782;2023-01-10T01:11:45;3.07;;;1.77;;
21657;SDS011;10990;48.174;9.782;2023-01-10T01:14:12;2.10;;;1.70;;
21657;SDS011;10990;48.174;9.782;2023-01-10T01:16:38;2.83;;;1.80;;
21657;SDS011;10990;48.174;9.782;2023-01-10T01:19:05;2.17;;;1.60;;
21657;SDS011;10990;48.174;9.782;2023-01-10T01:21:33;2.20;;;2.00;;
21657;SDS011;10990;48.174;9.782;2023-01-10T01:24:00;2.07;;;1.80;;
21657;SDS011;10990;48.174;9.782;2023-01-10T01:26:26;2.40;;;1.70;;
21657;SDS011;10990;48.174;9.782;2023-01-10T01:28:53;3.63;;;1.70;;
21657;SDS011;10990;48.174;9.782;2023-01-10T01:31:20;1.97;;;1.70;;
21657;SDS011;10990;48.174;9.782;2023-01-10T01:33:47;2.17;;;1.77;;
21657;SDS011;10990;48.174;9.782;2023-01-10T01:36:15;1.97;;;1.60;;
21657;SDS011;10990;48.174;9.782;2023-01-10T01:38:43;2.40;;;2.20;;
21657;SDS011;10990;48.174;9.782;2023-01-10T01:41:10;3.60;;;2.10;;
21657;SDS011;10990;48.174;9.782;2023-01-10T01:43:59;1.63;;;1.53;;
21657;SDS011;10990;48.174;9.782;2023-01-10T01:46:27;2.37;;;1.73;;
21657;SDS011;10990;48.174;9.782;2023-01-10T01:48:56;2.00;;;1.80;;
21657;SDS011;10990;48.174;9.782;2023-01-10T01:51:24;2.97;;;1.80;;
21657;SDS011;10990;48.174;9.782;2023-01-10T01:53:56;3.33;;;2.13;;
21657;SDS011;10990;48.174;9.782;2023-01-10T01:56:30;3.60;;;1.90;;
21657;SDS011;10990;48.174;9.782;2023-01-10T01:59:00;2.23;;;1.73;;
21657;SDS011;10990;48.174;9.782;2023-01-10T02:01:31;2.60;;;1.77;;
21657;SDS011;10990;48.174;9.782;2023-01-10T02:04:02;1.90;;;1.70;;
21657;SDS011;10990;48.174;9.782;2023-01-10T02:06:34;2.87;;;1.77;;
21657;SDS011;10990;48.174;9.782;2023-01-10T02:09:04;2.50;;;1.70;;
21657;SDS011;10990;48.174;9.782;2023-01-10T02:11:37;2.33;;;1.93;;
21657;SDS011;10990;48.174;9.782;2023-01-10T02:14:04;3.33;;;1.80;;
21657;SDS011;10990;48.174;9.782;2023-01-10T02:16:33;1.87;;;1.40;;
21657;SDS011;10990;48.174;9.782;2023-01-10T02:19:00;1.60;;;1.50;;
21657;SDS011;10990;48.174;9.782;2023-01-10T02:21:33;1.57;;;1.43;;
21657;SDS011;10990;48.174;9.782;2023-01-10T02:27:20;2.20;;;1.60;;
21657;SDS011;10990;48.174;9.782;2023-01-10T02:32:50;2.93;;;1.50;;
21657;SDS011;10990;48.174;9.782;2023-01-10T02:35:33;1.63;;;1.33;;
21657;SDS011;10990;48.174;9.782;2023-01-10T02:38:11;1.67;;;1.20;;
21657;SDS011;10990;48.174;9.782;2023-01-10T02:40:48;1.40;;;1.30;;
21657;SDS011;10990;48.174;9.782;2023-01-10T02:43:21;2.60;;;1.40;;
21657;SDS011;10990;48.174;9.782;2023-01-10T02:45:53;1.67;;;1.10;;
21657;SDS011;10990;48.174;9.782;2023-01-10T02:48:24;0.90;;;0.90;;
21657;SDS011;10990;48.174;9.782;2023-01-10T02:50:52;1.50;;;1.00;;
21657;SDS011;10990;48.174;9.782;2023-01-10T02:53:23;2.00;;;1.20;;
21657;SDS011;10990;48.174;9.782;2023-01-10T02:55:58;1.23;;;0.90;;
21657;SDS011;10990;48.174;9.782;2023-01-10T02:58:40;0.90;;;0.90;;
21657;SDS011;10990;48.174;9.782;2023-01-10T03:01:20;0.80;;;0.80;;
21657;SDS011;10990;48.174;9.782;2023-01-10T03:03:56;0.70;;;0.67;;
21657;SDS011;10990;48.174;9.782;2023-01-10T03:06:30;2.20;;;0.80;;
21657;SDS011;10990;48.174;9.782;2023-01-10T03:09:06;0.70;;;0.70;;
21657;SDS011;10990;48.174;9.782;2023-01-10T03:11:40;0.73;;;0.70;;
21657;SDS011;10990;48.174;9.782;2023-01-10T03:14:13;1.10;;;0.87;;
21657;SDS011;10990;48.174;9.782;2023-01-10T03:16:43;1.17;;;0.90;;
21657;SDS011;10990;48.174;9.782;2023-01-10T03:19:16;1.17;;;0.80;;
21657;SDS011;10990;48.174;9.782;2023-01-10T03:21:46;0.87;;;0.80;;
21657;SDS011;10990;48.174;9.782;2023-01-10T03:24:18;1.50;;;0.70;;
21657;SDS011;10990;48.174;9.782;2023-01-10T03:26:51;1.77;;;1.00;;
21657;SDS011;10990;48.174;9.782;2023-01-10T03:29:24;1.17;;;1.00;;
21657;SDS011;10990;48.174;9.782;2023-01-10T03:31:54;1.80;;;0.90;;
21657;SDS011;10990;48.174;9.782;2023-01-10T03:34:27;1.23;;;0.80;;
21657;SDS011;10990;48.174;9.782;2023-01-10T03:36:57;1.00;;;0.90;;
21657;SDS011;10990;48.174;9.782;2023-01-10T03:39:29;1.03;;;0.93;;
21657;SDS011;10990;48.174;9.782;2023-01-10T03:42:04;1.67;;;0.80;;
21657;SDS011;10990;48.174;9.782;2023-01-10T03:44:37;0.80;;;0.80;;
21657;SDS011;10990;48.174;9.782;2023-01-10T03:47:11;0.70;;;0.70;;
21657;SDS011;10990;48.174;9.782;2023-01-10T03:49:45;0.80;;;0.80;;
21657;SDS011;10990;48.174;9.782;2023-01-10T03:52:15;1.03;;;0.60;;
21657;SDS011;10990;48.174;9.782;2023-01-10T03:54:43;0.87;;;0.60;;
21657;SDS011;10990;48.174;9.782;2023-01-10T03:57:14;0.40;;;0.40;;
21657;SDS011;10990;48.174;9.782;2023-01-10T03:59:43;0.97;;;0.57;;
21657;SDS011;10990;48.174;9.782;2023-01-10T04:02:10;1.97;;;0.60;;
21657;SDS011;10990;48.174;9.782;2023-01-10T04:04:36;0.97;;;0.60;;
21657;SDS011;10990;48.174;9.782;2023-01-10T04:07:04;0.67;;;0.50;;
21657;SDS011;10990;48.174;9.782;2023-01-10T04:09:31;0.73;;;0.47;;
21657;SDS011;10990;48.174;9.782;2023-01-10T04:11:58;0.40;;;0.40;;
21657;SDS011;10990;48.174;9.782;2023-01-10T04:14:25;0.27;;;0.20;;
21657;SDS011;10990;48.174;9.782;2023-01-10T04:16:52;1.33;;;0.30;;
21657;SDS011;10990;48.174;9.782;2023-01-10T04:19:19;0.30;;;0.30;;
21657;SDS011;10990;48.174;9.782;2023-01-10T04:21:46;1.07;;;0.40;;
21657;SDS011;10990;48.174;9.782;2023-01-10T04:24:14;0.90;;;0.60;;
21657;SDS011;10990;48.174;9.782;2023-01-10T04:26:41;1.07;;;0.70;;
21657;SDS011;10990;48.174;9.782;2023-01-10T04:29:08;0.97;;;0.60;;
21657;SDS011;10990;48.174;9.782;2023-01-10T04:31:34;0.60;;;0.60;;
21657;SDS011;10990;48.174;9.782;2023-01-10T04:34:01;0.30;;;0.30;;
21657;SDS011;10990;48.174;9.782;2023-01-10T04:36:28;0.40;;;0.40;;
21657;SDS011;10990;48.174;9.782;2023-01-10T04:38:54;0.40;;;0.40;;
21657;SDS011;10990;48.174;9.782;2023-01-10T04:41:22;0.30;;;0.30;;
21657;SDS011;10990;48.174;9.782;2023-01-10T04:43:49;0.47;;;0.47;;
21657;SDS011;10990;48.174;9.782;2023-01-10T04:46:16;0.67;;;0.30;;
21657;SDS011;10990;48.174;9.782;2023-01-10T04:48:42;0.60;;;0.27;;
21657;SDS011;10990;48.174;9.782;2023-01-10T04:51:09;0.33;;;0.33;;
21657;SDS011;10990;48.174;9.782;2023-01-10T04:53:36;0.20;;;0.20;;
21657;SDS011;10990;48.174;9.782;2023-01-10T04:56:03;0.63;;;0.20;;
21657;SDS011;10990;48.174;9.782;2023-01-10T04:58:33;0.13;;;0.10;;
21657;SDS011;10990;48.174;9.782;2023-01-10T05:01:05;0.50;;;0.20;;
21657;SDS011;10990;48.174;9.782;2023-01-10T05:03:34;0.33;;;0.20;;
21657;SDS011;10990;48.174;9.782;2023-01-10T05:06:00;0.43;;;0.30;;
21657;SDS011;10990;48.174;9.782;2023-01-10T05:08:27;0.63;;;0.27;;
21657;SDS011;10990;48.174;9.782;2023-01-10T05:10:54;0.60;;;0.27;;
21657;SDS011;10990;48.174;9.782;2023-01-10T05:13:21;0.60;;;0.30;;
21657;SDS011;10990;48.174;9.782;2023-01-10T05:15:50;0.30;;;0.30;;
21657;SDS011;10990;48.174;9.782;2023-01-10T05:18:19;0.30;;;0.30;;
21657;SDS011;10990;48.174;9.782;2023-01-10T05:20:45;0.97;;;0.40;;
21657;SDS011;10990;48.174;9.782;2023-01-10T05:23:12;2.43;;;0.30;;
21657;SDS011;10990;48.174;9.782;2023-01-10T05:25:39;0.97;;;0.50;;
21657;SDS011;10990;48.174;9.782;2023-01-10T05:28:05;1.53;;;0.50;;
21657;SDS011;10990;48.174;9.782;2023-01-10T05:30:32;1.67;;;0.60;;
21657;SDS011;10990;48.174;9.782;2023-01-10T05:33:00;1.80;;;0.60;;
21657;SDS011;10990;48.174;9.782;2023-01-10T05:35:29;0.83;;;0.60;;
21657;SDS011;10990;48.174;9.782;2023-01-10T05:37:56;1.00;;;0.60;;
21657;SDS011;10990;48.174;9.782;2023-01-10T05:40:22;2.73;;;0.57;;
21657;SDS011;10990;48.174;9.782;2023-01-10T05:42:49;2.07;;;0.60;;
21657;SDS011;10990;48.174;9.782;2023-01-10T05:45:16;0.70;;;0.53;;
21657;SDS011;10990;48.174;9.782;2023-01-10T05:47:42;2.13;;;0.70;;
21657;SDS011;10990;48.174;9.782;2023-01-10T05:50:11;3.23;;;0.70;;
21657;SDS011;10990;48.174;9.782;2023-01-10T05:52:38;2.50;;;0.90;;
21657;SDS011;10990;48.174;9.782;2023-01-10T05:55:05;2.80;;;0.90;;
21657;SDS011;10990;48.174;9.782;2023-01-10T05:57:32;2.13;;;0.90;;
21657;SDS011;10990;48.174;9.782;2023-01-10T05:59:59;5.60;;;1.00;;
21657;SDS011;10990;48.174;9.782;2023-01-10T06:02:25;2.37;;;1.10;;
21657;SDS011;10990;48.174;9.782;2023-01-10T06:04:52;3.83;;;1.00;;
21657;SDS011;10990;48.174;9.782;2023-01-10T06:07:21;2.70;;;1.10;;
21657;SDS011;10990;48.174;9.782;2023-01-10T06:09:48;3.53;;;1.17;;
21657;SDS011;10990;48.174;9.782;2023-01-10T06:12:16;4.03;;;0.90;;
21657;SDS011;10990;48.174;9.782;2023-01-10T06:14:43;4.63;;;1.27;;
21657;SDS011;10990;48.174;9.782;2023-01-10T06:17:10;2.70;;;1.40;;
21657;SDS011;10990;48.174;9.782;2023-01-10T06:19:37;4.00;;;1.20;;
21657;SDS011;10990;48.174;9.782;2023-01-10T06:22:03;5.60;;;1.10;;
21657;SDS011;10990;48.174;9.782;2023-01-10T06:24:32;3.57;;;1.10;;
21657;SDS011;10990;48.174;9.782;2023-01-10T06:26:58;6.20;;;1.30;;
21657;SDS011;10990;48.174;9.782;2023-01-10T06:29:25;2.57;;;1.07;;
21657;SDS011;10990;48.174;9.782;2023-01-10T06:31:52;4.17;;;1.27;;
21657;SDS011;10990;48.174;9.782;2023-01-10T06:34:18;4.60;;;1.60;;
21657;SDS011;10990;48.174;9.782;2023-01-10T06:36:45;6.23;;;1.50;;
21657;SDS011;10990;48.174;9.782;2023-01-10T06:39:12;7.27;;;1.60;;
21657;SDS011;10990;48.174;9.782;2023-01-10T06:41:40;3.47;;;1.10;;
21657;SDS011;10990;48.174;9.782;2023-01-10T06:44:06;4.60;;;1.20;;
21657;SDS011;10990;48.174;9.782;2023-01-10T06:46:33;3.97;;;1.40;;
21657;SDS011;10990;48.174;9.782;2023-01-10T06:49:00;4.43;;;1.40;;
21657;SDS011;10990;48.174;9.782;2023-01-10T06:51:27;4.17;;;1.60;;
21657;SDS011;10990;48.174;9.782;2023-01-10T06:53:53;2.70;;;1.20;;
21657;SDS011;10990;48.174;9.782;2023-01-10T06:56:20;7.00;;;1.73;;
21657;SDS011;10990;48.174;9.782;2023-01-10T06:58:48;5.33;;;1.40;;
21657;SDS011;10990;48.174;9.782;2023-01-10T07:01:16;3.97;;;1.33;;
21657;SDS011;10990;48.174;9.782;2023-01-10T07:03:45;4.03;;;1.40;;
21657;SDS011;10990;48.174;9.782;2023-01-10T07:06:12;3.87;;;1.23;;
21657;SDS011;10990;48.174;9.782;2023-01-10T07:08:40;5.13;;;1.40;;
21657;SDS011;10990;48.174;9.782;2023-01-10T07:11:09;4.83;;;1.40;;
21657;SDS011;10990;48.174;9.782;2023-01-10T07:13:37;3.57;;;1.10;;
21657;SDS011;10990;48.174;9.782;2023-01-10T07:16:06;2.50;;;1.20;;
21657;SDS011;10990;48.174;9.782;2023-01-10T07:18:35;6.80;;;1.47;;
21657;SDS011;10990;48.174;9.782;2023-01-10T07:21:03;3.00;;;1.23;;
21657;SDS011;10990;48.174;9.782;2023-01-10T07:23:30;7.60;;;1.30;;
21657;SDS011;10990;48.174;9.782;2023-01-10T07:25:57;3.90;;;1.30;;
21657;SDS011;10990;48.174;9.782;2023-01-10T07:28:27;3.97;;;1.20;;
21657;SDS011;10990;48.174;9.782;2023-01-10T07:30:56;4.73;;;1.20;;
21657;SDS011;10990;48.174;9.782;2023-01-10T07:33:25;3.47;;;1.30;;
21657;SDS011;10990;48.174;9.782;2023-01-10T07:35:52;5.63;;;1.53;;
21657;SDS011;10990;48.174;9.782;2023-01-10T07:38:18;4.03;;;1.20;;
21657;SDS011;10990;48.174;9.782;2023-01-10T07:40:45;2.27;;;1.20;;
21657;SDS011;10990;48.174;9.782;2023-01-10T07:43:12;5.23;;;1.27;;
21657;SDS011;10990;48.174;9.782;2023-01-10T07:45:39;4.07;;;1.37;;
21657;SDS011;10990;48.174;9.782;2023-01-10T07:48:05;6.77;;;1.50;;
21657;SDS011;10990;48.174;9.782;2023-01-10T07:50:34;5.67;;;1.97;;
21657;SDS011;10990;48.174;9.782;2023-01-10T07:53:02;6.43;;;1.70;;
21657;SDS011;10990;48.174;9.782;2023-01-10T07:55:30;6.47;;;1.40;;
21657;SDS011;10990;48.174;9.782;2023-01-10T07:57:58;3.83;;;1.63;;
21657;SDS011;10990;48.174;9.782;2023-01-10T08:00:25;5.43;;;1.50;;
21657;SDS011;10990;48.174;9.782;2023-01-10T08:02:53;2.90;;;1.20;;
21657;SDS011;10990;48.174;9.782;2023-01-10T08:05:20;5.70;;;1.50;;
21657;SDS011;10990;48.174;9.782;2023-01-10T08:07:48;3.30;;;1.23;;
21657;SDS011;10990;48.174;9.782;2023-01-10T08:10:15;2.90;;;1.30;;
21657;SDS011;10990;48.174;9.782;2023-01-10T08:12:42;4.10;;;1.30;;
21657;SDS011;10990;48.174;9.782;2023-01-10T08:15:10;7.07;;;1.33;;
21657;SDS011;10990;48.174;9.782;2023-01-10T08:17:37;2.63;;;1.13;;
21657;SDS011;10990;48.174;9.782;2023-01-10T08:20:04;3.83;;;1.20;;
21657;SDS011;10990;48.174;9.782;2023-01-10T08:22:31;4.37;;;1.50;;
21657;SDS011;10990;48.174;9.782;2023-01-10T08:24:59;7.17;;;1.40;;
21657;SDS011;10990;48.174;9.782;2023-01-10T08:27:26;5.53;;;1.33;;
21657;SDS011;10990;48.174;9.782;2023-01-10T08:29:52;3.43;;;1.33;;
21657;SDS011;10990;48.174;9.782;2023-01-10T08:32:19;6.37;;;1.80;;
21657;SDS011;10990;48.174;9.782;2023-01-10T08:34:46;4.50;;;1.50;;
21657;SDS011;10990;48.174;9.782;2023-01-10T08:37:13;4.47;;;1.40;;
21657;SDS011;10990;48.174;9.782;2023-01-10T08:39:40;2.97;;;1.23;;
21657;SDS011;10990;48.174;9.782;2023-01-10T08:42:08;7.90;;;1.63;;
21657;SDS011;10990;48.174;9.782;2023-01-10T08:44:34;5.47;;;1.43;;
21657;SDS011;10990;48.174;9.782;2023-01-10T08:47:01;3.60;;;1.30;;
21657;SDS011;10990;48.174;9.782;2023-01-10T08:49:28;5.47;;;1.30;;
21657;SDS011;10990;48.174;9.782;2023-01-10T08:51:55;3.83;;;1.50;;
21657;SDS011;10990;48.174;9.782;2023-01-10T08:54:22;3.47;;;1.20;;
21657;SDS011;10990;48.174;9.782;2023-01-10T08:56:48;6.33;;;1.70;;
21657;SDS011;10990;48.174;9.782;2023-01-10T08:59:17;5.87;;;1.40;;
21657;SDS011;10990;48.174;9.782;2023-01-10T09:01:43;6.33;;;1.50;;
21657;SDS011;10990;48.174;9.782;2023-01-10T09:04:10;6.13;;;1.40;;
21657;SDS011;10990;48.174;9.782;2023-01-10T09:06:37;5.27;;;1.20;;
21657;SDS011;10990;48.174;9.782;2023-01-10T09:09:03;5.17;;;1.40;;
21657;SDS011;10990;48.174;9.782;2023-01-10T09:11:30;4.57;;;1.30;;
21657;SDS011;10990;48.174;9.782;2023-01-10T09:13:57;5.83;;;1.37;;
21657;SDS011;10990;48.174;9.782;2023-01-10T09:16:25;4.40;;;1.33;;
21657;SDS011;10990;48.174;9.782;2023-01-10T09:18:52;5.53;;;1.53;;
21657;SDS011;10990;48.174;9.782;2023-01-10T09:21:19;5.67;;;1.40;;
21657;SDS011;10990;48.174;9.782;2023-01-10T09:23:46;2.87;;;1.20;;
21657;SDS011;10990;48.174;9.782;2023-01-10T09:26:13;6.83;;;1.30;;
21657;SDS011;10990;48.174;9.782;2023-01-10T09:28:40;4.93;;;1.60;;
21657;SDS011;10990;48.174;9.782;2023-01-10T09:31:06;5.30;;;1.80;;
21657;SDS011;10990;48.174;9.782;2023-01-10T09:33:36;6.97;;;2.20;;
21657;SDS011;10990;48.174;9.782;2023-01-10T09:36:05;7.43;;;3.37;;
21657;SDS011;10990;48.174;9.782;2023-01-10T09:38:33;7.17;;;2.40;;
21657;SDS011;10990;48.174;9.782;2023-01-10T09:41:02;6.13;;;1.90;;
21657;SDS011;10990;48.174;9.782;2023-01-10T09:43:45;5.30;;;2.20;;
21657;SDS011;10990;48.174;9.782;2023-01-10T09:46:21;6.30;;;2.60;;
21657;SDS011;10990;48.174;9.782;2023-01-10T09:49:00;5.87;;;1.90;;
21657;SDS011;10990;48.174;9.782;2023-01-10T09:51:33;5.03;;;2.00;;
21657;SDS011;10990;48.174;9.782;2023-01-10T09:54:04;5.73;;;1.70;;
21657;SDS011;10990;48.174;9.782;2023-01-10T09:56:36;4.93;;;1.60;;
21657;SDS011;10990;48.174;9.782;2023-01-10T09:59:02;5.37;;;1.80;;
21657;SDS011;10990;48.174;9.782;2023-01-10T10:01:31;3.77;;;1.43;;
21657;SDS011;10990;48.174;9.782;2023-01-10T10:04:04;4.27;;;1.70;;
21657;SDS011;10990;48.174;9.782;2023-01-10T10:06:41;3.50;;;1.40;;
21657;SDS011;10990;48.174;9.782;2023-01-10T10:09:08;4.83;;;1.57;;
21657;SDS011;10990;48.174;9.782;2023-01-10T10:11:45;4.97;;;1.30;;
21657;SDS011;10990;48.174;9.782;2023-01-10T10:14:26;3.63;;;1.27;;
21657;SDS011;10990;48.174;9.782;2023-01-10T10:17:11;4.70;;;1.50;;
21657;SDS011;10990;48.174;9.782;2023-01-10T10:19:57;3.37;;;1.50;;
21657;SDS011;10990;48.174;9.782;2023-01-10T10:22:34;4.30;;;1.77;;
21657;SDS011;10990;48.174;9.782;2023-01-10T10:25:17;5.47;;;1.57;;
21657;SDS011;10990;48.174;9.782;2023-01-10T10:28:01;4.93;;;1.47;;
21657;SDS011;10990;48.174;9.782;2023-01-10T10:30:44;3.90;;;1.37;;
21657;SDS011;10990;48.174;9.782;2023-01-10T10:33:20;3.80;;;1.50;;
21657;SDS011;10990;48.174;9.782;2023-01-10T10:36:08;4.33;;;1.40;;
21657;SDS011;10990;48.174;9.782;2023-01-10T10:38:40;5.80;;;1.40;;
21657;SDS011;10990;48.174;9.782;2023-01-10T10:41:13;3.80;;;1.30;;
21657;SDS011;10990;48.174;9.782;2023-01-10T10:43:44;4.03;;;1.43;;
21657;SDS011;10990;48.174;9.782;2023-01-10T10:46:12;5.73;;;1.60;;
21657;SDS011;10990;48.174;9.782;2023-01-10T10:48:45;4.70;;;1.20;;
21657;SDS011;10990;48.174;9.782;2023-01-10T10:51:22;4.20;;;1.50;;
21657;SDS011;10990;48.174;9.782;2023-01-10T10:53:53;6.57;;;1.70;;
21657;SDS011;10990;48.174;9.782;2023-01-10T10:56:22;8.00;;;1.50;;
21657;SDS011;10990;48.174;9.782;2023-01-10T10:58:53;5.07;;;1.40;;
21657;SDS011;10990;48.174;9.782;2023-01-10T11:01:23;6.17;;;1.90;;
21657;SDS011;10990;48.174;9.782;2023-01-10T11:03:51;4.73;;;1.70;;
21657;SDS011;10990;48.174;9.782;2023-01-10T11:06:22;5.63;;;1.83;;
21657;SDS011;10990;48.174;9.782;2023-01-10T11:08:52;2.83;;;1.60;;
21657;SDS011;10990;48.174;9.782;2023-01-10T11:11:23;4.80;;;2.00;;
21657;SDS011;10990;48.174;9.782;2023-01-10T11:13:53;7.67;;;2.10;;
21657;SDS011;10990;48.174;9.782;2023-01-10T11:16:23;5.60;;;1.83;;
21657;SDS011;10990;48.174;9.782;2023-01-10T11:21:44;6.20;;;1.90;;
21657;SDS011;10990;48.174;9.782;2023-01-10T11:24:17;7.10;;;2.30;;
21657;SDS011;10990;48.174;9.782;2023-01-10T11:26:48;6.87;;;2.13;;
21657;SDS011;10990;48.174;9.782;2023-01-10T11:29:15;9.13;;;2.40;;
21657;SDS011;10990;48.174;9.782;2023-01-10T11:31:45;5.53;;;2.10;;
21657;SDS011;10990;48.174;9.782;2023-01-10T11:34:19;6.57;;;2.00;;
21657;SDS011;10990;48.174;9.782;2023-01-10T11:36:54;5.63;;;1.77;;
21657;SDS011;10990;48.174;9.782;2023-01-10T11:39:24;7.97;;;2.20;;
21657;SDS011;10990;48.174;9.782;2023-01-10T11:41:51;8.73;;;1.93;;
21657;SDS011;10990;48.174;9.782;2023-01-10T11:44:21;7.93;;;1.90;;
21657;SDS011;10990;48.174;9.782;2023-01-10T11:46:51;3.37;;;1.37;;
21657;SDS011;10990;48.174;9.782;2023-01-10T11:49:23;7.57;;;2.00;;
21657;SDS011;10990;48.174;9.782;2023-01-10T11:51:57;4.83;;;1.47;;
21657;SDS011;10990;48.174;9.782;2023-01-10T11:54:28;6.10;;;1.40;;
21657;SDS011;10990;48.174;9.782;2023-01-10T11:56:56;5.23;;;1.60;;
21657;SDS011;10990;48.174;9.782;2023-01-10T11:59:25;3.90;;;1.50;;
21657;SDS011;10990;48.174;9.782;2023-01-10T12:01:54;5.40;;;1.50;;
21657;SDS011;10990;48.174;9.782;2023-01-10T12:04:25;5.13;;;1.20;;
21657;SDS011;10990;48.174;9.782;2023-01-10T12:06:55;3.20;;;1.10;;
21657;SDS011;10990;48.174;9.782;2023-01-10T12:09:35;3.40;;;1.20;;
21657;SDS011;10990;48.174;9.782;2023-01-10T12:12:05;4.30;;;1.27;;
21657;SDS011;10990;48.174;9.782;2023-01-10T12:14:39;3.50;;;1.03;;
21657;SDS011;10990;48.174;9.782;2023-01-10T12:17:05;3.43;;;1.40;;
21657;SDS011;10990;48.174;9.782;2023-01-10T12:19:36;4.07;;;1.43;;
21657;SDS011;10990;48.174;9.782;2023-01-10T12:22:04;5.70;;;1.40;;
21657;SDS011;10990;48.174;9.782;2023-01-10T12:24:33;6.37;;;1.27;;
21657;SDS011;10990;48.174;9.782;2023-01-10T12:27:04;6.23;;;1.20;;
21657;SDS011;10990;48.174;9.782;2023-01-10T12:29:33;4.43;;;1.17;;
21657;SDS011;10990;48.174;9.782;2023-01-10T12:32:02;4.30;;;1.30;;
21657;SDS011;10990;48.174;9.782;2023-01-10T12:34:33;5.53;;;1.30;;
21657;SDS011;10990;48.174;9.782;2023-01-10T12:37:11;3.80;;;1.20;;
21657;SDS011;10990;48.174;9.782;2023-01-10T12:39:45;6.07;;;1.20;;
21657;SDS011;10990;48.174;9.782;2023-01-10T12:42:20;5.20;;;1.10;;
21657;SDS011;10990;48.174;9.782;2023-01-10T12:45:12;5.77;;;1.27;;
21657;SDS011;10990;48.174;9.782;2023-01-10T12:47:47;3.53;;;1.10;;
21657;SDS011;10990;48.174;9.782;2023-01-10T12:50:21;3.63;;;1.10;;
21657;SDS011;10990;48.174;9.782;2023-01-10T12:52:53;4.33;;;1.10;;
21657;SDS011;10990;48.174;9.782;2023-01-10T12:55:25;4.27;;;1.03;;
21657;SDS011;10990;48.174;9.782;2023-01-10T12:57:56;4.67;;;1.27;;
21657;SDS011;10990;48.174;9.782;2023-01-10T13:00:27;5.60;;;1.33;;
21657;SDS011;10990;48.174;9.782;2023-01-10T13:02:58;5.47;;;1.30;;
21657;SDS011;10990;48.174;9.782;2023-01-10T13:05:27;2.77;;;1.00;;
21657;SDS011;10990;48.174;9.782;2023-01-10T13:07:59;4.07;;;1.10;;
21657;SDS011;10990;48.174;9.782;2023-01-10T13:10:30;4.07;;;1.00;;
21657;SDS011;10990;48.174;9.782;2023-01-10T13:13:00;3.80;;;1.20;;
21657;SDS011;10990;48.174;9.782;2023-01-10T13:15:37;3.10;;;0.90;;
21657;SDS011;10990;48.174;9.782;2023-01-10T13:18:15;4.60;;;1.20;;
21657;SDS011;10990;48.174;9.782;2023-01-10T13:20:45;4.70;;;1.40;;
21657;SDS011;10990;48.174;9.782;2023-01-10T13:23:24;2.67;;;0.90;;
21657;SDS011;10990;48.174;9.782;2023-01-10T13:25:56;2.50;;;0.90;;
21657;SDS011;10990;48.174;9.782;2023-01-10T13:28:25;4.73;;;0.97;;
21657;SDS011;10990;48.174;9.782;2023-01-10T13:30:53;4.63;;;1.17;;
21657;SDS011;10990;48.174;9.782;2023-01-10T13:33:23;5.40;;;1.00;;
21657;SDS011;10990;48.174;9.782;2023-01-10T13:35:52;2.57;;;1.03;;
21657;SDS011;10990;48.174;9.782;2023-01-10T13:38:23;4.27;;;1.20;;
21657;SDS011;10990;48.174;9.782;2023-01-10T13:40:57;3.13;;;1.07;;
21657;SDS011;10990;48.174;9.782;2023-01-10T13:49:26;7.30;;;1.27;;
21657;SDS011;10990;48.174;9.782;2023-01-10T13:58:00;4.40;;;1.00;;
21657;SDS011;10990;48.174;9.782;2023-01-10T14:00:44;2.90;;;0.80;;
21657;SDS011;10990;48.174;9.782;2023-01-10T14:03:43;4.20;;;0.80;;
21657;SDS011;10990;48.174;9.782;2023-01-10T14:06:15;3.80;;;0.90;;
21657;SDS011;10990;48.174;9.782;2023-01-10T14:08:49;4.43;;;1.00;;
21657;SDS011;10990;48.174;9.782;2023-01-10T14:11:19;4.40;;;1.10;;
21657;SDS011;10990;48.174;9.782;2023-01-10T14:13:50;5.33;;;1.37;;
21657;SDS011;10990;48.174;9.782;2023-01-10T14:16:28;3.63;;;1.20;;
21657;SDS011;10990;48.174;9.782;2023-01-10T14:18:57;2.40;;;0.90;;
21657;SDS011;10990;48.174;9.782;2023-01-10T14:21:26;2.50;;;1.00;;
21657;SDS011;10990;48.174;9.782;2023-01-10T14:23:54;5.13;;;0.90;;
21657;SDS011;10990;48.174;9.782;2023-01-10T14:26:25;2.80;;;0.90;;
21657;SDS011;10990;48.174;9.782;2023-01-10T14:28:56;4.00;;;0.77;;
21657;SDS011;10990;48.174;9.782;2023-01-10T14:31:25;3.20;;;0.70;;
21657;SDS011;10990;48.174;9.782;2023-01-10T14:33:52;3.00;;;0.67;;
21657;SDS011;10990;48.174;9.782;2023-01-10T14:36:20;4.43;;;0.77;;
21657;SDS011;10990;48.174;9.782;2023-01-10T14:38:53;1.90;;;0.70;;
21657;SDS011;10990;48.174;9.782;2023-01-10T14:41:26;3.93;;;0.73;;
21657;SDS011;10990;48.174;9.782;2023-01-10T14:43:58;3.00;;;0.63;;
21657;SDS011;10990;48.174;9.782;2023-01-10T14:46:28;3.20;;;0.80;;
21657;SDS011;10990;48.174;9.782;2023-01-10T14:49:15;2.77;;;0.70;;
21657;SDS011;10990;48.174;9.782;2023-01-10T14:51:46;2.70;;;0.87;;
21657;SDS011;10990;48.174;9.782;2023-01-10T14:54:14;2.83;;;1.00;;
21657;SDS011;10990;48.174;9.782;2023-01-10T14:56:45;3.53;;;0.97;;
21657;SDS011;10990;48.174;9.782;2023-01-10T14:59:23;3.07;;;0.80;;
21657;SDS011;10990;48.174;9.782;2023-01-10T15:01:51;2.40;;;1.00;;
21657;SDS011;10990;48.174;9.782;2023-01-10T15:04:21;3.60;;;0.90;;
21657;SDS011;10990;48.174;9.782;2023-01-10T15:06:51;6.07;;;2.00;;
21657;SDS011;10990;48.174;9.782;2023-01-10T15:09:20;4.83;;;1.60;;
21657;SDS011;10990;48.174;9.782;2023-01-10T15:11:49;3.47;;;1.20;;
21657;SDS011;10990;48.174;9.782;2023-01-10T15:14:17;4.73;;;1.33;;
21657;SDS011;10990;48.174;9.782;2023-01-10T15:16:47;5.60;;;1.20;;
21657;SDS011;10990;48.174;9.782;2023-01-10T15:19:18;3.33;;;1.20;;
21657;SDS011;10990;48.174;9.782;2023-01-10T15:21:48;4.67;;;1.20;;
21657;SDS011;10990;48.174;9.782;2023-01-10T15:24:22;7.67;;;2.50;;
21657;SDS011;10990;48.174;9.782;2023-01-10T15:26:58;5.07;;;1.60;;